sensor_id;sensor_type;location;lat;lon;timestamp;P1;durP1;ratioP1;P2;durP2;ratioP2
27003;SDS011;14546;47.590;19.022;2022-12-07T00:01:18;25.67;;;17.88;;
27003;SDS011;14546;47.590;19.022;2022-12-07T00:03:45;23.83;;;17.60;;
27003;SDS011;14546;47.590;19.022;2022-12-07T00:06:12;26.67;;;17.73;;
27003;SDS011;14546;47.590;19.022;2022-12-07T00:08:39;26.33;;;16.40;;
27003;SDS011;14546;47.590;19.022;2022-12-07T00:11:07;25.95;;;17.58;;
27003;SDS011;14546;47.590;19.022;2022-12-07T00:13:33;27.75;;;17.35;;
27003;SDS011;14546;47.590;19.022;2022-12-07T00:16:04;23.85;;;15.48;;
27003;SDS011;14546;47.590;19.022;2022-12-07T00:18:30;24.80;;;16.60;;
27003;SDS011;14546;47.590;19.022;2022-12-07T00:21:03;24.08;;;16.08;;
27003;SDS011;14546;47.590;19.022;2022-12-07T00:25:55;21.92;;;14.80;;
27003;SDS011;14546;47.590;19.022;2022-12-07T00:28:21;22.42;;;15.05;;
27003;SDS011;14546;47.590;19.022;2022-12-07T00:30:47;25.00;;;15.95;;
27003;SDS011;14546;47.590;19.022;2022-12-07T00:33:13;27.35;;;15.65;;
27003;SDS011;14546;47.590;19.022;2022-12-07T00:35:39;22.52;;;14.05;;
27003;SDS011;14546;47.590;19.022;2022-12-07T00:38:05;26.38;;;14.75;;
27003;SDS011;14546;47.590;19.022;2022-12-07T00:40:32;20.73;;;13.63;;
27003;SDS011;14546;47.590;19.022;2022-12-07T00:42:58;20.38;;;14.38;;
27003;SDS011;14546;47.590;19.022;2022-12-07T00:45:24;22.90;;;14.48;;
27003;SDS011;14546;47.590;19.022;2022-12-07T00:47:50;21.88;;;14.50;;
27003;SDS011;14546;47.590;19.022;2022-12-07T00:50:16;19.75;;;14.05;;
27003;SDS011;14546;47.590;19.022;2022-12-07T00:52:42;20.70;;;13.70;;
27003;SDS011;14546;47.590;19.022;2022-12-07T00:55:08;20.00;;;13.10;;
27003;SDS011;14546;47.590;19.022;2022-12-07T00:57:34;21.27;;;13.27;;
27003;SDS011;14546;47.590;19.022;2022-12-07T01:00:00;18.20;;;12.88;;
27003;SDS011;14546;47.590;19.022;2022-12-07T01:02:26;19.83;;;13.65;;
27003;SDS011;14546;47.590;19.022;2022-12-07T01:04:52;21.67;;;12.52;;
27003;SDS011;14546;47.590;19.022;2022-12-07T01:07:18;22.60;;;14.23;;
27003;SDS011;14546;47.590;19.022;2022-12-07T01:09:44;19.92;;;13.68;;
27003;SDS011;14546;47.590;19.022;2022-12-07T01:12:10;19.50;;;12.75;;
27003;SDS011;14546;47.590;19.022;2022-12-07T01:14:36;21.48;;;14.32;;
27003;SDS011;14546;47.590;19.022;2022-12-07T01:17:02;23.15;;;13.43;;
27003;SDS011;14546;47.590;19.022;2022-12-07T01:19:28;26.50;;;13.93;;
27003;SDS011;14546;47.590;19.022;2022-12-07T01:21:54;23.80;;;15.05;;
27003;SDS011;14546;47.590;19.022;2022-12-07T01:24:20;25.65;;;15.93;;
27003;SDS011;14546;47.590;19.022;2022-12-07T01:26:48;26.63;;;17.13;;
27003;SDS011;14546;47.590;19.022;2022-12-07T01:29:14;28.95;;;15.57;;
27003;SDS011;14546;47.590;19.022;2022-12-07T01:31:40;23.80;;;15.48;;
27003;SDS011;14546;47.590;19.022;2022-12-07T01:34:09;26.77;;;15.95;;
27003;SDS011;14546;47.590;19.022;2022-12-07T01:36:36;21.88;;;15.05;;
27003;SDS011;14546;47.590;19.022;2022-12-07T01:39:05;23.95;;;15.52;;
27003;SDS011;14546;47.590;19.022;2022-12-07T01:41:33;27.92;;;17.52;;
27003;SDS011;14546;47.590;19.022;2022-12-07T01:46:44;29.35;;;18.40;;
27003;SDS011;14546;47.590;19.022;2022-12-07T01:49:21;30.17;;;18.98;;
27003;SDS011;14546;47.590;19.022;2022-12-07T01:51:49;35.38;;;19.38;;
27003;SDS011;14546;47.590;19.022;2022-12-07T01:54:16;30.38;;;19.85;;
27003;SDS011;14546;47.590;19.022;2022-12-07T01:56:45;34.40;;;20.30;;
27003;SDS011;14546;47.590;19.022;2022-12-07T01:59:12;25.98;;;18.25;;
27003;SDS011;14546;47.590;19.022;2022-12-07T02:01:39;29.50;;;18.63;;
27003;SDS011;14546;47.590;19.022;2022-12-07T02:04:05;30.33;;;19.02;;
27003;SDS011;14546;47.590;19.022;2022-12-07T02:06:31;30.38;;;20.15;;
27003;SDS011;14546;47.590;19.022;2022-12-07T02:08:57;30.83;;;19.17;;
27003;SDS011;14546;47.590;19.022;2022-12-07T02:11:23;32.53;;;20.00;;
27003;SDS011;14546;47.590;19.022;2022-12-07T02:13:49;30.48;;;20.30;;
27003;SDS011;14546;47.590;19.022;2022-12-07T02:16:22;31.95;;;19.52;;
27003;SDS011;14546;47.590;19.022;2022-12-07T02:21:46;30.83;;;18.38;;
27003;SDS011;14546;47.590;19.022;2022-12-07T02:31:54;27.38;;;16.08;;
27003;SDS011;14546;47.590;19.022;2022-12-07T02:34:26;26.55;;;16.73;;
27003;SDS011;14546;47.590;19.022;2022-12-07T02:36:56;22.87;;;15.70;;
27003;SDS011;14546;47.590;19.022;2022-12-07T02:41:53;27.50;;;15.80;;
27003;SDS011;14546;47.590;19.022;2022-12-07T02:44:22;24.67;;;16.92;;
27003;SDS011;14546;47.590;19.022;2022-12-07T02:46:53;22.45;;;15.73;;
27003;SDS011;14546;47.590;19.022;2022-12-07T02:49:23;25.23;;;16.38;;
27003;SDS011;14546;47.590;19.022;2022-12-07T02:51:50;22.13;;;14.00;;
27003;SDS011;14546;47.590;19.022;2022-12-07T02:54:18;21.17;;;13.50;;
27003;SDS011;14546;47.590;19.022;2022-12-07T02:57:28;21.80;;;13.43;;
27003;SDS011;14546;47.590;19.022;2022-12-07T03:07:16;18.42;;;12.13;;
27003;SDS011;14546;47.590;19.022;2022-12-07T03:09:57;18.38;;;10.60;;
27003;SDS011;14546;47.590;19.022;2022-12-07T03:12:29;20.83;;;11.38;;
27003;SDS011;14546;47.590;19.022;2022-12-07T03:15:03;14.80;;;11.57;;
27003;SDS011;14546;47.590;19.022;2022-12-07T03:17:31;19.85;;;12.10;;
27003;SDS011;14546;47.590;19.022;2022-12-07T03:20:00;23.10;;;11.65;;
27003;SDS011;14546;47.590;19.022;2022-12-07T03:22:28;19.20;;;12.00;;
27003;SDS011;14546;47.590;19.022;2022-12-07T03:24:56;18.98;;;12.23;;
27003;SDS011;14546;47.590;19.022;2022-12-07T03:27:34;16.70;;;11.60;;
27003;SDS011;14546;47.590;19.022;2022-12-07T03:30:03;18.90;;;12.82;;
27003;SDS011;14546;47.590;19.022;2022-12-07T03:32:36;19.13;;;12.85;;
27003;SDS011;14546;47.590;19.022;2022-12-07T03:35:08;22.50;;;14.18;;
27003;SDS011;14546;47.590;19.022;2022-12-07T03:37:36;22.52;;;13.90;;
27003;SDS011;14546;47.590;19.022;2022-12-07T03:42:31;19.42;;;13.82;;
27003;SDS011;14546;47.590;19.022;2022-12-07T03:44:58;17.38;;;13.18;;
27003;SDS011;14546;47.590;19.022;2022-12-07T03:47:27;22.63;;;14.95;;
27003;SDS011;14546;47.590;19.022;2022-12-07T03:49:58;25.00;;;15.52;;
27003;SDS011;14546;47.590;19.022;2022-12-07T03:52:30;22.42;;;15.38;;
27003;SDS011;14546;47.590;19.022;2022-12-07T03:55:09;24.70;;;16.50;;
27003;SDS011;14546;47.590;19.022;2022-12-07T03:57:36;23.45;;;15.20;;
27003;SDS011;14546;47.590;19.022;2022-12-07T04:00:04;25.23;;;14.95;;
27003;SDS011;14546;47.590;19.022;2022-12-07T04:02:31;25.73;;;15.48;;
27003;SDS011;14546;47.590;19.022;2022-12-07T04:04:57;23.65;;;15.50;;
27003;SDS011;14546;47.590;19.022;2022-12-07T04:07:24;22.95;;;14.90;;
27003;SDS011;14546;47.590;19.022;2022-12-07T04:09:50;20.95;;;13.88;;
27003;SDS011;14546;47.590;19.022;2022-12-07T04:12:16;25.05;;;16.08;;
27003;SDS011;14546;47.590;19.022;2022-12-07T04:14:42;23.80;;;14.32;;
27003;SDS011;14546;47.590;19.022;2022-12-07T04:17:08;23.08;;;15.88;;
27003;SDS011;14546;47.590;19.022;2022-12-07T04:19:34;21.92;;;13.57;;
27003;SDS011;14546;47.590;19.022;2022-12-07T04:22:01;23.73;;;14.82;;
27003;SDS011;14546;47.590;19.022;2022-12-07T04:24:27;21.63;;;13.63;;
27003;SDS011;14546;47.590;19.022;2022-12-07T04:26:54;20.80;;;13.07;;
27003;SDS011;14546;47.590;19.022;2022-12-07T04:29:20;25.55;;;13.07;;
27003;SDS011;14546;47.590;19.022;2022-12-07T04:31:46;19.05;;;13.07;;
27003;SDS011;14546;47.590;19.022;2022-12-07T04:34:12;22.77;;;11.18;;
27003;SDS011;14546;47.590;19.022;2022-12-07T04:36:38;15.55;;;10.48;;
27003;SDS011;14546;47.590;19.022;2022-12-07T04:39:06;15.95;;;9.77;;
27003;SDS011;14546;47.590;19.022;2022-12-07T04:41:32;13.82;;;9.45;;
27003;SDS011;14546;47.590;19.022;2022-12-07T04:44:00;16.10;;;10.23;;
27003;SDS011;14546;47.590;19.022;2022-12-07T04:46:27;15.40;;;9.98;;
27003;SDS011;14546;47.590;19.022;2022-12-07T04:48:53;14.18;;;9.45;;
27003;SDS011;14546;47.590;19.022;2022-12-07T04:51:21;12.80;;;8.68;;
27003;SDS011;14546;47.590;19.022;2022-12-07T04:53:47;15.60;;;9.60;;
27003;SDS011;14546;47.590;19.022;2022-12-07T04:56:14;14.63;;;9.15;;
27003;SDS011;14546;47.590;19.022;2022-12-07T04:58:40;12.90;;;8.48;;
27003;SDS011;14546;47.590;19.022;2022-12-07T05:01:06;13.73;;;9.15;;
27003;SDS011;14546;47.590;19.022;2022-12-07T05:03:32;19.15;;;12.35;;
27003;SDS011;14546;47.590;19.022;2022-12-07T05:05:58;13.55;;;9.50;;
27003;SDS011;14546;47.590;19.022;2022-12-07T05:08:25;12.63;;;8.93;;
27003;SDS011;14546;47.590;19.022;2022-12-07T05:10:51;13.43;;;9.05;;
27003;SDS011;14546;47.590;19.022;2022-12-07T05:13:17;14.05;;;9.80;;
27003;SDS011;14546;47.590;19.022;2022-12-07T05:15:43;15.27;;;10.30;;
27003;SDS011;14546;47.590;19.022;2022-12-07T05:18:09;15.55;;;9.23;;
27003;SDS011;14546;47.590;19.022;2022-12-07T05:20:37;14.05;;;9.32;;
27003;SDS011;14546;47.590;19.022;2022-12-07T05:23:03;13.70;;;9.60;;
27003;SDS011;14546;47.590;19.022;2022-12-07T05:25:29;13.38;;;8.90;;
27003;SDS011;14546;47.590;19.022;2022-12-07T05:27:55;12.73;;;9.00;;
27003;SDS011;14546;47.590;19.022;2022-12-07T05:30:22;13.05;;;8.80;;
27003;SDS011;14546;47.590;19.022;2022-12-07T05:32:48;12.80;;;8.82;;
27003;SDS011;14546;47.590;19.022;2022-12-07T05:35:14;12.15;;;7.88;;
27003;SDS011;14546;47.590;19.022;2022-12-07T05:37:40;10.45;;;7.75;;
27003;SDS011;14546;47.590;19.022;2022-12-07T05:40:06;11.85;;;8.15;;
27003;SDS011;14546;47.590;19.022;2022-12-07T05:42:32;12.70;;;8.68;;
27003;SDS011;14546;47.590;19.022;2022-12-07T05:44:58;11.90;;;8.15;;
27003;SDS011;14546;47.590;19.022;2022-12-07T05:47:24;13.93;;;9.43;;
27003;SDS011;14546;47.590;19.022;2022-12-07T05:49:50;14.48;;;10.68;;
27003;SDS011;14546;47.590;19.022;2022-12-07T05:52:17;17.00;;;11.63;;
27003;SDS011;14546;47.590;19.022;2022-12-07T05:54:43;18.48;;;11.77;;
27003;SDS011;14546;47.590;19.022;2022-12-07T05:57:09;15.48;;;10.32;;
27003;SDS011;14546;47.590;19.022;2022-12-07T05:59:35;16.80;;;11.15;;
27003;SDS011;14546;47.590;19.022;2022-12-07T06:02:02;15.98;;;11.88;;
27003;SDS011;14546;47.590;19.022;2022-12-07T06:04:29;16.60;;;11.27;;
27003;SDS011;14546;47.590;19.022;2022-12-07T06:06:56;16.33;;;11.63;;
27003;SDS011;14546;47.590;19.022;2022-12-07T06:09:22;17.17;;;11.38;;
27003;SDS011;14546;47.590;19.022;2022-12-07T06:11:50;24.30;;;14.98;;
27003;SDS011;14546;47.590;19.022;2022-12-07T06:14:34;18.08;;;11.90;;
27003;SDS011;14546;47.590;19.022;2022-12-07T06:17:01;22.77;;;13.30;;
27003;SDS011;14546;47.590;19.022;2022-12-07T06:19:28;26.65;;;14.73;;
27003;SDS011;14546;47.590;19.022;2022-12-07T06:21:54;27.98;;;16.52;;
27003;SDS011;14546;47.590;19.022;2022-12-07T06:24:21;25.38;;;15.43;;
27003;SDS011;14546;47.590;19.022;2022-12-07T06:26:47;26.05;;;14.95;;
27003;SDS011;14546;47.590;19.022;2022-12-07T06:29:13;23.65;;;14.65;;
27003;SDS011;14546;47.590;19.022;2022-12-07T06:31:39;24.40;;;15.07;;
27003;SDS011;14546;47.590;19.022;2022-12-07T06:34:06;21.10;;;14.35;;
27003;SDS011;14546;47.590;19.022;2022-12-07T06:36:33;22.60;;;14.48;;
27003;SDS011;14546;47.590;19.022;2022-12-07T06:38:59;23.65;;;14.00;;
27003;SDS011;14546;47.590;19.022;2022-12-07T06:41:25;22.63;;;15.63;;
27003;SDS011;14546;47.590;19.022;2022-12-07T06:43:51;22.63;;;14.77;;
27003;SDS011;14546;47.590;19.022;2022-12-07T06:46:17;21.02;;;14.55;;
27003;SDS011;14546;47.590;19.022;2022-12-07T06:48:43;20.48;;;14.60;;
27003;SDS011;14546;47.590;19.022;2022-12-07T06:51:09;20.92;;;13.30;;
27003;SDS011;14546;47.590;19.022;2022-12-07T06:53:35;19.55;;;13.45;;
27003;SDS011;14546;47.590;19.022;2022-12-07T06:56:02;25.30;;;14.55;;
27003;SDS011;14546;47.590;19.022;2022-12-07T06:58:28;22.77;;;14.48;;
27003;SDS011;14546;47.590;19.022;2022-12-07T07:00:54;23.85;;;15.30;;
27003;SDS011;14546;47.590;19.022;2022-12-07T07:03:20;26.95;;;17.45;;
27003;SDS011;14546;47.590;19.022;2022-12-07T07:05:46;25.52;;;16.92;;
27003;SDS011;14546;47.590;19.022;2022-12-07T07:08:12;30.55;;;17.90;;
27003;SDS011;14546;47.590;19.022;2022-12-07T07:10:39;30.80;;;19.52;;
27003;SDS011;14546;47.590;19.022;2022-12-07T07:13:05;34.78;;;20.50;;
27003;SDS011;14546;47.590;19.022;2022-12-07T07:15:31;26.70;;;17.65;;
27003;SDS011;14546;47.590;19.022;2022-12-07T07:17:58;32.70;;;20.98;;
27003;SDS011;14546;47.590;19.022;2022-12-07T07:20:24;35.22;;;20.98;;
27003;SDS011;14546;47.590;19.022;2022-12-07T07:22:53;41.35;;;21.73;;
27003;SDS011;14546;47.590;19.022;2022-12-07T07:25:20;45.55;;;22.63;;
27003;SDS011;14546;47.590;19.022;2022-12-07T07:27:47;37.50;;;22.27;;
27003;SDS011;14546;47.590;19.022;2022-12-07T07:30:13;40.20;;;23.48;;
27003;SDS011;14546;47.590;19.022;2022-12-07T07:32:39;40.00;;;23.67;;
27003;SDS011;14546;47.590;19.022;2022-12-07T07:35:05;39.10;;;20.80;;
27003;SDS011;14546;47.590;19.022;2022-12-07T07:37:31;34.95;;;20.73;;
27003;SDS011;14546;47.590;19.022;2022-12-07T07:39:57;40.55;;;21.95;;
27003;SDS011;14546;47.590;19.022;2022-12-07T07:42:23;34.65;;;21.73;;
27003;SDS011;14546;47.590;19.022;2022-12-07T07:44:49;35.78;;;19.63;;
27003;SDS011;14546;47.590;19.022;2022-12-07T07:47:15;30.35;;;19.17;;
27003;SDS011;14546;47.590;19.022;2022-12-07T07:49:41;36.33;;;23.23;;
27003;SDS011;14546;47.590;19.022;2022-12-07T07:52:07;38.05;;;24.35;;
27003;SDS011;14546;47.590;19.022;2022-12-07T07:54:33;32.17;;;22.83;;
27003;SDS011;14546;47.590;19.022;2022-12-07T07:56:59;30.40;;;21.90;;
27003;SDS011;14546;47.590;19.022;2022-12-07T07:59:25;32.08;;;22.23;;
27003;SDS011;14546;47.590;19.022;2022-12-07T08:01:51;32.90;;;22.83;;
27003;SDS011;14546;47.590;19.022;2022-12-07T08:04:17;36.88;;;22.70;;
27003;SDS011;14546;47.590;19.022;2022-12-07T08:06:43;30.48;;;21.40;;
27003;SDS011;14546;47.590;19.022;2022-12-07T08:09:09;33.25;;;22.48;;
27003;SDS011;14546;47.590;19.022;2022-12-07T08:11:35;31.85;;;22.85;;
27003;SDS011;14546;47.590;19.022;2022-12-07T08:14:02;30.88;;;21.15;;
27003;SDS011;14546;47.590;19.022;2022-12-07T08:16:28;36.83;;;21.98;;
27003;SDS011;14546;47.590;19.022;2022-12-07T08:18:54;36.30;;;21.02;;
27003;SDS011;14546;47.590;19.022;2022-12-07T08:21:21;32.35;;;21.35;;
27003;SDS011;14546;47.590;19.022;2022-12-07T08:23:47;31.73;;;21.63;;
27003;SDS011;14546;47.590;19.022;2022-12-07T08:26:14;31.50;;;21.70;;
27003;SDS011;14546;47.590;19.022;2022-12-07T08:28:40;34.05;;;22.42;;
27003;SDS011;14546;47.590;19.022;2022-12-07T08:31:14;31.70;;;23.00;;
27003;SDS011;14546;47.590;19.022;2022-12-07T08:33:40;31.30;;;22.42;;
27003;SDS011;14546;47.590;19.022;2022-12-07T08:36:08;30.40;;;21.67;;
27003;SDS011;14546;47.590;19.022;2022-12-07T08:38:35;31.83;;;21.42;;
27003;SDS011;14546;47.590;19.022;2022-12-07T08:41:01;38.15;;;23.05;;
27003;SDS011;14546;47.590;19.022;2022-12-07T08:43:28;33.90;;;21.10;;
27003;SDS011;14546;47.590;19.022;2022-12-07T08:48:33;25.27;;;17.35;;
27003;SDS011;14546;47.590;19.022;2022-12-07T08:51:01;31.17;;;20.52;;
27003;SDS011;14546;47.590;19.022;2022-12-07T08:53:27;32.85;;;21.70;;
27003;SDS011;14546;47.590;19.022;2022-12-07T08:55:53;33.67;;;22.95;;
27003;SDS011;14546;47.590;19.022;2022-12-07T08:58:19;31.23;;;21.65;;
27003;SDS011;14546;47.590;19.022;2022-12-07T09:00:45;33.67;;;21.65;;
27003;SDS011;14546;47.590;19.022;2022-12-07T09:03:11;31.33;;;20.48;;
27003;SDS011;14546;47.590;19.022;2022-12-07T09:05:37;30.25;;;20.40;;
27003;SDS011;14546;47.590;19.022;2022-12-07T09:08:03;30.40;;;21.38;;
27003;SDS011;14546;47.590;19.022;2022-12-07T09:10:29;29.90;;;19.02;;
27003;SDS011;14546;47.590;19.022;2022-12-07T09:12:55;25.17;;;18.60;;
27003;SDS011;14546;47.590;19.022;2022-12-07T09:15:25;28.42;;;19.33;;
27003;SDS011;14546;47.590;19.022;2022-12-07T09:17:52;25.88;;;17.50;;
27003;SDS011;14546;47.590;19.022;2022-12-07T09:20:18;27.60;;;18.30;;
27003;SDS011;14546;47.590;19.022;2022-12-07T09:22:44;24.05;;;16.50;;
27003;SDS011;14546;47.590;19.022;2022-12-07T09:25:10;26.55;;;16.80;;
27003;SDS011;14546;47.590;19.022;2022-12-07T09:27:36;22.50;;;14.95;;
27003;SDS011;14546;47.590;19.022;2022-12-07T09:30:03;22.92;;;14.80;;
27003;SDS011;14546;47.590;19.022;2022-12-07T09:32:29;19.30;;;13.63;;
27003;SDS011;14546;47.590;19.022;2022-12-07T09:34:55;22.83;;;14.80;;
27003;SDS011;14546;47.590;19.022;2022-12-07T09:37:21;19.60;;;12.43;;
27003;SDS011;14546;47.590;19.022;2022-12-07T09:39:47;17.38;;;12.13;;
27003;SDS011;14546;47.590;19.022;2022-12-07T09:44:58;14.77;;;9.93;;
27003;SDS011;14546;47.590;19.022;2022-12-07T09:47:24;14.13;;;11.10;;
27003;SDS011;14546;47.590;19.022;2022-12-07T09:49:51;16.20;;;11.85;;
27003;SDS011;14546;47.590;19.022;2022-12-07T09:52:19;13.65;;;8.95;;
27003;SDS011;14546;47.590;19.022;2022-12-07T09:54:49;12.52;;;9.88;;
27003;SDS011;14546;47.590;19.022;2022-12-07T09:57:15;12.13;;;9.38;;
27003;SDS011;14546;47.590;19.022;2022-12-07T09:59:41;15.90;;;8.90;;
27003;SDS011;14546;47.590;19.022;2022-12-07T10:02:22;12.27;;;9.50;;
27003;SDS011;14546;47.590;19.022;2022-12-07T10:04:49;16.35;;;10.02;;
27003;SDS011;14546;47.590;19.022;2022-12-07T10:07:15;12.70;;;9.10;;
27003;SDS011;14546;47.590;19.022;2022-12-07T10:09:41;12.65;;;9.40;;
27003;SDS011;14546;47.590;19.022;2022-12-07T10:12:09;11.57;;;8.45;;
27003;SDS011;14546;47.590;19.022;2022-12-07T10:14:36;13.27;;;9.32;;
27003;SDS011;14546;47.590;19.022;2022-12-07T10:17:09;14.35;;;9.23;;
27003;SDS011;14546;47.590;19.022;2022-12-07T10:19:48;11.98;;;9.70;;
27003;SDS011;14546;47.590;19.022;2022-12-07T10:22:16;16.23;;;11.65;;
27003;SDS011;14546;47.590;19.022;2022-12-07T10:24:43;14.77;;;11.07;;
27003;SDS011;14546;47.590;19.022;2022-12-07T10:27:22;19.40;;;12.02;;
27003;SDS011;14546;47.590;19.022;2022-12-07T10:29:51;19.02;;;12.48;;
27003;SDS011;14546;47.590;19.022;2022-12-07T10:34:44;15.23;;;10.57;;
27003;SDS011;14546;47.590;19.022;2022-12-07T10:42:21;18.35;;;11.60;;
27003;SDS011;14546;47.590;19.022;2022-12-07T10:44:48;16.70;;;11.43;;
27003;SDS011;14546;47.590;19.022;2022-12-07T10:47:23;17.30;;;10.48;;
27003;SDS011;14546;47.590;19.022;2022-12-07T10:58:00;21.08;;;12.02;;
27003;SDS011;14546;47.590;19.022;2022-12-07T11:00:32;30.75;;;11.75;;
27003;SDS011;14546;47.590;19.022;2022-12-07T11:10:41;21.70;;;10.90;;
27003;SDS011;14546;47.590;19.022;2022-12-07T11:15:41;18.27;;;11.52;;
27003;SDS011;14546;47.590;19.022;2022-12-07T11:20:44;15.68;;;9.80;;
27003;SDS011;14546;47.590;19.022;2022-12-07T11:23:21;13.35;;;9.48;;
27003;SDS011;14546;47.590;19.022;2022-12-07T11:31:18;14.05;;;9.07;;
27003;SDS011;14546;47.590;19.022;2022-12-07T11:39:04;18.52;;;9.07;;
27003;SDS011;14546;47.590;19.022;2022-12-07T11:41:34;12.40;;;8.05;;
27003;SDS011;14546;47.590;19.022;2022-12-07T11:44:05;11.05;;;8.68;;
27003;SDS011;14546;47.590;19.022;2022-12-07T11:46:49;15.15;;;9.77;;
27003;SDS011;14546;47.590;19.022;2022-12-07T11:52:01;8.98;;;6.55;;
27003;SDS011;14546;47.590;19.022;2022-12-07T11:54:30;10.65;;;7.97;;
27003;SDS011;14546;47.590;19.022;2022-12-07T11:56:59;14.85;;;8.25;;
27003;SDS011;14546;47.590;19.022;2022-12-07T11:59:30;14.57;;;8.63;;
27003;SDS011;14546;47.590;19.022;2022-12-07T12:02:12;15.05;;;8.55;;
27003;SDS011;14546;47.590;19.022;2022-12-07T12:07:21;11.50;;;7.30;;
27003;SDS011;14546;47.590;19.022;2022-12-07T12:22:20;14.57;;;9.18;;
27003;SDS011;14546;47.590;19.022;2022-12-07T12:24:49;11.88;;;9.80;;
27003;SDS011;14546;47.590;19.022;2022-12-07T12:27:37;16.60;;;9.35;;
27003;SDS011;14546;47.590;19.022;2022-12-07T12:30:29;58.13;;;12.65;;
27003;SDS011;14546;47.590;19.022;2022-12-07T12:32:49;16.05;;;8.95;;
27003;SDS011;14546;47.590;19.022;2022-12-07T12:37:52;12.82;;;7.43;;
27003;SDS011;14546;47.590;19.022;2022-12-07T12:42:56;9.85;;;7.32;;
27003;SDS011;14546;47.590;19.022;2022-12-07T12:45:27;9.98;;;7.38;;
27003;SDS011;14546;47.590;19.022;2022-12-07T12:48:03;9.77;;;7.75;;
27003;SDS011;14546;47.590;19.022;2022-12-07T12:50:31;11.05;;;7.38;;
27003;SDS011;14546;47.590;19.022;2022-12-07T12:52:58;11.55;;;8.48;;
27003;SDS011;14546;47.590;19.022;2022-12-07T12:56:13;11.63;;;8.73;;
27003;SDS011;14546;47.590;19.022;2022-12-07T13:00:48;12.23;;;8.30;;
27003;SDS011;14546;47.590;19.022;2022-12-07T13:03:26;10.45;;;7.68;;
27003;SDS011;14546;47.590;19.022;2022-12-07T13:08:40;14.38;;;8.80;;
27003;SDS011;14546;47.590;19.022;2022-12-07T13:11:18;12.77;;;9.20;;
27003;SDS011;14546;47.590;19.022;2022-12-07T13:13:47;13.00;;;8.50;;
27003;SDS011;14546;47.590;19.022;2022-12-07T13:18:40;12.55;;;9.50;;
27003;SDS011;14546;47.590;19.022;2022-12-07T13:26:17;13.00;;;9.55;;
27003;SDS011;14546;47.590;19.022;2022-12-07T13:28:51;16.73;;;10.20;;
27003;SDS011;14546;47.590;19.022;2022-12-07T13:33:43;22.08;;;8.70;;
27003;SDS011;14546;47.590;19.022;2022-12-07T13:36:21;18.63;;;10.10;;
27003;SDS011;14546;47.590;19.022;2022-12-07T13:38:55;15.15;;;9.80;;
27003;SDS011;14546;47.590;19.022;2022-12-07T13:41:22;24.38;;;10.30;;
27003;SDS011;14546;47.590;19.022;2022-12-07T13:44:11;28.25;;;11.00;;
27003;SDS011;14546;47.590;19.022;2022-12-07T13:46:41;48.22;;;12.80;;
27003;SDS011;14546;47.590;19.022;2022-12-07T13:49:16;28.02;;;12.15;;
27003;SDS011;14546;47.590;19.022;2022-12-07T13:51:43;19.73;;;10.70;;
27003;SDS011;14546;47.590;19.022;2022-12-07T13:54:10;16.20;;;10.30;;
27003;SDS011;14546;47.590;19.022;2022-12-07T13:56:36;17.98;;;11.27;;
27003;SDS011;14546;47.590;19.022;2022-12-07T13:59:18;15.02;;;10.27;;
27003;SDS011;14546;47.590;19.022;2022-12-07T14:01:45;14.13;;;9.85;;
27003;SDS011;14546;47.590;19.022;2022-12-07T14:04:16;12.82;;;8.02;;
27003;SDS011;14546;47.590;19.022;2022-12-07T14:06:49;12.32;;;7.78;;
27003;SDS011;14546;47.590;19.022;2022-12-07T14:09:19;11.10;;;7.90;;
27003;SDS011;14546;47.590;19.022;2022-12-07T14:11:47;14.93;;;7.95;;
27003;SDS011;14546;47.590;19.022;2022-12-07T14:14:15;11.85;;;7.85;;
27003;SDS011;14546;47.590;19.022;2022-12-07T14:16:42;13.07;;;8.65;;
27003;SDS011;14546;47.590;19.022;2022-12-07T14:22:28;12.93;;;9.30;;
27003;SDS011;14546;47.590;19.022;2022-12-07T14:24:45;13.82;;;9.60;;
27003;SDS011;14546;47.590;19.022;2022-12-07T14:27:22;14.07;;;9.40;;
27003;SDS011;14546;47.590;19.022;2022-12-07T14:29:50;16.02;;;9.77;;
27003;SDS011;14546;47.590;19.022;2022-12-07T14:32:21;16.10;;;9.00;;
27003;SDS011;14546;47.590;19.022;2022-12-07T14:34:56;16.73;;;9.00;;
27003;SDS011;14546;47.590;19.022;2022-12-07T14:37:23;18.30;;;10.60;;
27003;SDS011;14546;47.590;19.022;2022-12-07T14:39:49;19.40;;;10.88;;
27003;SDS011;14546;47.590;19.022;2022-12-07T14:42:15;19.80;;;11.18;;
27003;SDS011;14546;47.590;19.022;2022-12-07T14:44:42;17.23;;;11.48;;
27003;SDS011;14546;47.590;19.022;2022-12-07T14:47:09;16.75;;;10.05;;
27003;SDS011;14546;47.590;19.022;2022-12-07T14:49:35;16.02;;;10.15;;
27003;SDS011;14546;47.590;19.022;2022-12-07T14:52:01;20.23;;;10.63;;
27003;SDS011;14546;47.590;19.022;2022-12-07T14:54:29;15.80;;;9.52;;
27003;SDS011;14546;47.590;19.022;2022-12-07T14:56:56;13.88;;;9.45;;
27003;SDS011;14546;47.590;19.022;2022-12-07T14:59:22;14.80;;;9.73;;
27003;SDS011;14546;47.590;19.022;2022-12-07T15:01:48;13.85;;;9.63;;
27003;SDS011;14546;47.590;19.022;2022-12-07T15:04:15;16.50;;;10.82;;
27003;SDS011;14546;47.590;19.022;2022-12-07T15:06:41;16.27;;;10.10;;
27003;SDS011;14546;47.590;19.022;2022-12-07T15:09:11;23.85;;;10.70;;
27003;SDS011;14546;47.590;19.022;2022-12-07T15:11:37;21.70;;;11.18;;
27003;SDS011;14546;47.590;19.022;2022-12-07T15:14:03;19.02;;;11.25;;
27003;SDS011;14546;47.590;19.022;2022-12-07T15:16:39;20.98;;;12.88;;
27003;SDS011;14546;47.590;19.022;2022-12-07T15:19:09;19.25;;;11.80;;
27003;SDS011;14546;47.590;19.022;2022-12-07T15:21:36;20.73;;;12.50;;
27003;SDS011;14546;47.590;19.022;2022-12-07T15:24:02;21.35;;;13.30;;
27003;SDS011;14546;47.590;19.022;2022-12-07T15:26:28;21.38;;;12.65;;
27003;SDS011;14546;47.590;19.022;2022-12-07T15:28:54;23.98;;;14.65;;
27003;SDS011;14546;47.590;19.022;2022-12-07T15:31:20;19.23;;;12.43;;
27003;SDS011;14546;47.590;19.022;2022-12-07T15:33:46;19.80;;;11.82;;
27003;SDS011;14546;47.590;19.022;2022-12-07T15:36:18;22.25;;;12.13;;
27003;SDS011;14546;47.590;19.022;2022-12-07T15:38:45;17.30;;;11.40;;
27003;SDS011;14546;47.590;19.022;2022-12-07T15:41:11;18.77;;;11.45;;
27003;SDS011;14546;47.590;19.022;2022-12-07T15:43:37;21.25;;;11.05;;
27003;SDS011;14546;47.590;19.022;2022-12-07T15:46:21;17.52;;;11.73;;
27003;SDS011;14546;47.590;19.022;2022-12-07T15:48:47;22.02;;;12.40;;
27003;SDS011;14546;47.590;19.022;2022-12-07T15:51:13;19.20;;;11.75;;
27003;SDS011;14546;47.590;19.022;2022-12-07T15:53:39;20.55;;;12.77;;
27003;SDS011;14546;47.590;19.022;2022-12-07T15:56:06;20.42;;;12.32;;
27003;SDS011;14546;47.590;19.022;2022-12-07T15:58:32;22.63;;;13.00;;
27003;SDS011;14546;47.590;19.022;2022-12-07T16:00:58;21.27;;;12.77;;
27003;SDS011;14546;47.590;19.022;2022-12-07T16:03:24;23.70;;;12.82;;
27003;SDS011;14546;47.590;19.022;2022-12-07T16:05:50;23.83;;;13.93;;
27003;SDS011;14546;47.590;19.022;2022-12-07T16:08:18;23.30;;;14.05;;
27003;SDS011;14546;47.590;19.022;2022-12-07T16:10:44;29.35;;;14.75;;